Time;durP1;ratioP1;P1;durP2;ratioP2;P2;SDS_P1;SDS_P2;PMS_P1;PMS_P2;Temp;Humidity;BMP_temperature;BMP_pressure;BME280_temperature;BME280_humidity;BME280_pressure;Samples;Min_cycle;Max_cycle;Signal;HPM_P1;HPM_P2
2021/12/12 00:00:51;;;;;;;12.23;6.18;;;;;;;-1.65;93.17;99050.84;5033779;28;20056;-71
2021/12/12 00:03:46;;;;;;;11.00;5.43;;;;;;;-1.66;93.14;99067.09;5019174;28;20154;-72
2021/12/12 00:06:34;;;;;;;11.23;5.63;;;;;;;-1.69;93.04;99055.16;5014040;28;20076;-70
2021/12/12 00:09:32;;;;;;;12.50;5.75;;;;;;;-1.68;93.23;99061.16;5013947;28;20061;-71
2021/12/12 00:12:28;;;;;;;14.57;6.35;;;;;;;-1.71;92.83;99062.03;5019039;28;20053;-70
2021/12/12 00:15:16;;;;;;;12.85;5.90;;;;;;;-1.83;93.02;99055.38;5013428;28;20141;-71
2021/12/12 00:18:03;;;;;;;10.40;5.20;;;;;;;-1.66;92.79;99073.09;5013307;28;20053;-70
2021/12/12 00:20:50;;;;;;;9.80;4.90;;;;;;;-1.72;92.60;99073.19;5051614;28;20063;-71
2021/12/12 00:23:37;;;;;;;11.45;4.93;;;;;;;-1.68;92.50;99061.16;5080175;28;20411;-71
2021/12/12 00:26:23;;;;;;;8.45;4.50;;;;;;;-1.73;92.86;99069.78;5075507;28;20051;-73
2021/12/12 00:29:11;;;;;;;12.00;5.63;;;;;;;-1.69;91.88;99044.88;5074144;28;20060;-70
2021/12/12 00:32:01;;;;;;;10.40;5.07;;;;;;;-1.74;91.85;99062.09;5073837;28;20056;-70
2021/12/12 00:34:54;;;;;;;10.65;4.35;;;;;;;-1.55;91.49;99102.97;5074251;28;20063;-71
2021/12/12 00:37:40;;;;;;;15.48;4.88;;;;;;;-1.62;91.17;99076.50;5073728;28;20056;-69
2021/12/12 00:40:31;;;;;;;12.15;4.45;;;;;;;-1.52;91.47;99095.22;5073432;28;20056;-69
2021/12/12 00:43:28;;;;;;;10.60;3.70;;;;;;;-1.40;90.11;99107.88;5073238;28;20141;-69
2021/12/12 00:46:17;;;;;;;8.80;4.28;;;;;;;-1.38;89.65;99105.28;5078531;28;20047;-70
2021/12/12 00:49:03;;;;;;;8.20;3.90;;;;;;;-1.50;90.16;99102.00;5072389;28;20123;-70
2021/12/12 00:51:49;;;;;;;10.20;5.13;;;;;;;-1.52;89.81;99096.03;5073440;28;20051;-68
2021/12/12 00:54:36;;;;;;;8.48;4.10;;;;;;;-1.47;89.03;99118.28;5073690;28;20075;-69
2021/12/12 00:57:23;;;;;;;10.23;4.60;;;;;;;-1.41;88.54;99142.19;5073126;28;20060;-71
2021/12/12 01:00:13;;;;;;;8.13;3.72;;;;;;;-1.40;88.29;99117.31;5073579;28;20410;-71
2021/12/12 01:02:59;;;;;;;9.68;4.03;;;;;;;-1.31;87.56;99142.06;5073076;28;20376;-67
2021/12/12 01:05:47;;;;;;;10.48;4.82;;;;;;;-1.34;86.86;99135.25;5073086;28;20048;-69
2021/12/12 01:08:34;;;;;;;10.43;4.05;;;;;;;-1.34;86.36;99135.25;5073333;28;20055;-70
2021/12/12 01:11:31;;;;;;;9.48;4.40;;;;;;;-1.52;86.44;99118.34;5072755;28;20056;-70
2021/12/12 01:14:25;;;;;;;9.07;4.03;;;;;;;-1.46;86.93;99122.53;5071800;28;20090;-71
2021/12/12 01:17:16;;;;;;;9.10;4.25;;;;;;;-1.43;86.38;99132.78;5072896;28;20412;-70
2021/12/12 01:20:19;;;;;;;7.00;3.15;;;;;;;-1.40;85.92;99143.00;5072701;28;20064;-69
2021/12/12 01:23:14;;;;;;;10.57;4.03;;;;;;;-1.49;85.20;99126.88;5072635;28;20052;-68
2021/12/12 01:26:00;;;;;;;10.98;3.53;;;;;;;-1.34;84.31;99121.53;5071893;28;20097;-68
2021/12/12 01:28:53;;;;;;;8.20;3.38;;;;;;;-1.35;84.97;99132.69;5073547;28;20527;-70
2021/12/12 01:31:46;;;;;;;7.15;3.22;;;;;;;-1.39;84.18;99130.13;5073444;28;20056;-71
2021/12/12 01:34:34;;;;;;;7.28;3.80;;;;;;;-1.44;84.53;99103.66;5073210;28;20056;-71
2021/12/12 01:37:39;;;;;;;7.60;3.58;;;;;;;-1.51;84.23;99110.63;5073639;28;20052;-71
2021/12/12 01:40:26;;;;;;;10.07;4.40;;;;;;;-1.46;84.14;99104.53;5073903;28;20047;-70
2021/12/12 01:43:15;;;;;;;11.23;3.90;;;;;;;-1.49;84.02;99103.75;5073752;28;20392;-71
2021/12/12 01:46:06;;;;;;;7.53;3.67;;;;;;;-1.46;83.95;99099.41;5078375;28;20047;-71
2021/12/12 01:49:04;;;;;;;6.83;3.43;;;;;;;-1.53;83.80;99085.78;5072465;28;20395;-70
2021/12/12 01:51:51;;;;;;;7.78;3.92;;;;;;;-1.50;83.17;99090.88;5073254;28;20052;-69
2021/12/12 01:54:44;;;;;;;8.05;4.03;;;;;;;-1.49;84.02;99108.88;5073519;28;20055;-70
2021/12/12 01:57:34;;;;;;;7.70;4.00;;;;;;;-1.46;83.43;99118.25;5070958;28;20051;-69
2021/12/12 02:00:30;;;;;;;6.70;3.40;;;;;;;-1.67;84.34;99097.13;5072378;28;20399;-71
2021/12/12 02:03:24;;;;;;;10.32;4.13;;;;;;;-1.50;84.37;99127.72;5072194;28;20051;-68
2021/12/12 02:06:12;;;;;;;10.73;3.75;;;;;;;-1.59;83.86;99120.13;5071985;28;20039;-70
2021/12/12 02:08:59;;;;;;;7.63;3.47;;;;;;;-1.45;83.61;99140.50;5071945;28;20052;-69
2021/12/12 02:11:47;;;;;;;7.25;3.30;;;;;;;-1.38;83.58;99137.00;5071952;28;20056;-69
2021/12/12 02:14:36;;;;;;;7.20;3.33;;;;;;;-1.46;83.92;99145.66;5071011;28;20399;-68
2021/12/12 02:17:37;;;;;;;6.47;3.45;;;;;;;-1.38;83.08;99124.16;5072157;28;20048;-68
2021/12/12 02:20:34;;;;;;;8.63;3.80;;;;;;;-1.41;83.70;99128.47;5072182;28;20059;-70
2021/12/12 02:23:33;;;;;;;9.50;3.47;;;;;;;-1.42;84.26;99135.31;5071797;28;20043;-70
2021/12/12 02:35:46;;;;;;;6.93;3.38;;;;;;;-1.25;83.69;99157.38;5071346;28;20510;-71
2021/12/12 02:38:33;;;;;;;7.40;3.53;;;;;;;-1.35;83.46;99143.81;5071773;28;20044;-71
2021/12/12 02:41:21;;;;;;;7.13;3.45;;;;;;;-1.24;82.99;99153.97;5071497;28;20064;-71
2021/12/12 02:44:06;;;;;;;8.52;3.30;;;;;;;-1.30;83.53;99156.59;5072010;28;20067;-71
2021/12/12 02:46:54;;;;;;;4.75;2.83;;;;;;;-1.27;83.03;99172.84;5070626;28;20048;-70
2021/12/12 02:49:56;;;;;;;6.05;3.40;;;;;;;-1.32;83.59;99163.50;5070462;28;20056;-68
2021/12/12 02:52:46;;;;;;;6.72;3.67;;;;;;;-1.30;83.69;99177.16;5071674;28;20051;-72
2021/12/12 02:55:37;;;;;;;6.43;3.15;;;;;;;-1.34;84.36;99165.22;5071410;28;20059;-70
2021/12/12 02:58:23;;;;;;;5.93;3.15;;;;;;;-1.34;84.92;99163.53;5072684;28;20051;-70
2021/12/12 03:01:19;;;;;;;8.15;3.45;;;;;;;-1.30;85.15;99174.59;5072869;28;20051;-70
2021/12/12 03:04:06;;;;;;;6.35;2.85;;;;;;;-1.27;85.77;99169.41;5072669;28;20052;-70
2021/12/12 03:06:52;;;;;;;9.55;3.53;;;;;;;-1.39;85.83;99183.28;5077489;28;20048;-69
2021/12/12 03:09:45;;;;;;;5.60;3.05;;;;;;;-1.31;85.57;99163.47;5072446;28;20059;-69
2021/12/12 03:12:34;;;;;;;7.65;2.70;;;;;;;-1.25;85.69;99198.53;5079487;28;20067;-71
2021/12/12 03:15:24;;;;;;;6.28;3.60;;;;;;;-1.30;85.81;99198.59;5074804;28;20059;-69
2021/12/12 03:18:21;;;;;;;7.50;3.50;;;;;;;-1.24;85.23;99200.25;5078131;28;20047;-70
2021/12/12 03:21:19;;;;;;;7.40;3.53;;;;;;;-1.24;86.04;99213.94;5072903;28;20506;-70
2021/12/12 03:24:09;;;;;;;9.23;4.22;;;;;;;-1.28;85.87;99196.00;5072323;28;20415;-71
2021/12/12 03:26:59;;;;;;;8.18;3.58;;;;;;;-1.20;86.50;99211.31;5048490;28;20162;-68
2021/12/12 03:29:46;;;;;;;7.70;3.83;;;;;;;-1.13;85.67;99224.06;5070681;28;20052;-68
2021/12/12 03:32:32;;;;;;;8.82;3.22;;;;;;;-1.14;85.07;99212.09;5070796;28;20051;-69
2021/12/12 03:35:18;;;;;;;7.57;3.60;;;;;;;-1.08;85.77;99215.47;5071186;28;20426;-69
2021/12/12 03:38:05;;;;;;;6.70;3.92;;;;;;;-1.06;84.49;99199.13;5062144;28;20331;-70
2021/12/12 03:40:51;;;;;;;6.70;3.30;;;;;;;-1.08;85.30;99194.88;5071362;28;20060;-69
2021/12/12 03:43:38;;;;;;;6.97;3.53;;;;;;;-1.03;84.68;99193.09;5071002;28;20391;-70
2021/12/12 03:46:25;;;;;;;6.55;3.03;;;;;;;-0.94;83.67;99195.53;5070971;28;20048;-69
2021/12/12 03:49:11;;;;;;;9.02;3.70;;;;;;;-1.07;84.64;99201.72;5101260;28;20056;-69
2021/12/12 03:51:57;;;;;;;7.97;3.70;;;;;;;-1.10;85.25;99215.50;5074941;28;20363;-69
2021/12/12 03:54:44;;;;;;;7.45;3.38;;;;;;;-1.03;85.29;99211.94;5074604;28;20067;-67
2021/12/12 03:57:31;;;;;;;8.88;3.65;;;;;;;-1.21;86.05;99194.22;5074376;28;20059;-68
2021/12/12 04:00:30;;;;;;;6.55;3.60;;;;;;;-1.13;86.55;99220.69;5075000;28;20510;-69
2021/12/12 04:03:16;;;;;;;10.43;4.22;;;;;;;-1.08;86.14;99203.47;5074618;28;20056;-69
2021/12/12 04:06:06;;;;;;;6.50;3.03;;;;;;;-1.13;86.17;99224.06;5074292;28;20048;-69
2021/12/12 04:08:53;;;;;;;7.55;3.45;;;;;;;-1.20;86.17;99206.19;5079188;28;20047;-68
2021/12/12 04:11:52;;;;;;;10.68;4.35;;;;;;;-1.21;85.76;99225.94;5074380;28;20051;-70
2021/12/12 04:14:38;;;;;;;5.43;2.85;;;;;;;-1.10;85.74;99235.22;5074399;28;20068;-69
2021/12/12 04:17:29;;;;;;;7.82;3.58;;;;;;;-1.08;84.17;99229.19;5073179;28;20494;-69
2021/12/12 04:20:25;;;;;;;5.85;2.90;;;;;;;-1.06;84.85;99242.84;5072947;28;20052;-70
2021/12/12 04:23:20;;;;;;;7.00;2.85;;;;;;;-1.15;84.31;99242.97;5064677;28;20052;-68
2021/12/12 04:26:14;;;;;;;6.03;2.72;;;;;;;-1.13;84.51;99244.66;5073385;28;20059;-72
2021/12/12 04:29:09;;;;;;;6.63;2.90;;;;;;;-1.17;86.02;99266.16;5075024;28;20082;-69
2021/12/12 04:31:58;;;;;;;7.15;3.00;;;;;;;-1.24;85.33;99262.81;5075152;28;20048;-70
2021/12/12 04:34:47;;;;;;;6.43;3.47;;;;;;;-1.13;85.17;99260.09;5074977;28;20047;-70
2021/12/12 04:37:33;;;;;;;8.70;3.40;;;;;;;-1.22;85.25;99267.09;5074017;28;20055;-70
2021/12/12 04:40:25;;;;;;;6.78;3.30;;;;;;;-1.24;85.84;99285.94;5078458;28;20087;-70
2021/12/12 04:43:11;;;;;;;6.68;3.00;;;;;;;-1.12;85.35;99287.53;5080021;28;20055;-71
2021/12/12 04:46:07;;;;;;;7.32;3.47;;;;;;;-1.25;84.75;99270.53;5074894;28;20052;-68
2021/12/12 04:52:03;;;;;;;9.00;3.88;;;;;;;-1.13;84.72;99277.25;5074617;28;20044;-70
2021/12/12 04:55:07;;;;;;;11.93;3.42;;;;;;;-1.00;84.61;99286.50;5074834;28;20059;-73
2021/12/12 04:57:53;;;;;;;7.38;3.42;;;;;;;-1.02;84.58;99292.56;5074423;28;20052;-72
2021/12/12 05:00:50;;;;;;;7.07;3.28;;;;;;;-0.99;84.35;99297.66;5073591;28;20063;-71
2021/12/12 05:04:00;;;;;;;10.70;3.95;;;;;;;-1.09;85.08;99307.19;5074385;28;20505;-70
2021/12/12 05:07:04;;;;;;;10.75;3.72;;;;;;;-1.02;84.63;99308.84;5073351;28;20060;-68
2021/12/12 05:09:52;;;;;;;9.15;4.03;;;;;;;-0.81;84.18;99331.72;5074276;28;20051;-69
2021/12/12 05:12:58;;;;;;;8.15;3.55;;;;;;;-0.80;83.39;99333.47;5073323;28;20055;-70
2021/12/12 05:15:49;;;;;;;5.93;3.17;;;;;;;-0.94;83.11;99320.75;5074461;28;20065;-69
2021/12/12 05:18:38;;;;;;;9.52;4.00;;;;;;;-1.02;84.36;99329.44;5074324;28;20056;-70
2021/12/12 05:21:29;;;;;;;8.63;3.70;;;;;;;-1.13;84.44;99300.41;5066769;28;20056;-69
2021/12/12 05:24:18;;;;;;;9.50;4.50;;;;;;;-1.10;84.81;99326.09;5079334;28;20474;-71
2021/12/12 05:27:08;;;;;;;6.72;3.65;;;;;;;-1.15;84.57;99315.84;5067084;28;20040;-69
2021/12/12 05:29:59;;;;;;;11.68;4.43;;;;;;;-1.17;84.97;99309.88;5069189;28;20060;-70
2021/12/12 05:32:47;;;;;;;8.88;4.05;;;;;;;-1.14;84.82;99338.13;5065248;28;20063;-71
2021/12/12 05:35:39;;;;;;;8.60;3.92;;;;;;;-1.14;85.08;99345.84;5057040;28;20047;-67
2021/12/12 05:38:26;;;;;;;;;;;;;;;-1.08;84.55;99350.09;5064856;28;20483;-69
2021/12/12 05:41:12;;;;;;;9.23;3.95;;;;;;;-1.18;84.12;99331.31;5073729;28;19939;-70
2021/12/12 05:43:59;;;;;;;9.93;3.88;;;;;;;-1.13;84.96;99349.28;5100543;28;20056;-73
2021/12/12 05:46:46;;;;;;;6.60;3.30;;;;;;;-0.75;84.65;99344.53;5070747;28;20047;-72
2021/12/12 05:49:32;;;;;;;8.50;4.15;;;;;;;-0.79;83.96;99346.31;5065388;28;20407;-69
2021/12/12 05:52:20;;;;;;;6.45;3.28;;;;;;;-0.73;83.61;99373.66;5057140;28;20515;-69
2021/12/12 05:55:08;;;;;;;6.90;3.20;;;;;;;-0.80;84.67;99372.06;5070062;28;20043;-68
2021/12/12 05:57:56;;;;;;;9.13;3.40;;;;;;;-0.84;82.20;99363.50;5071683;28;20059;-71
2021/12/12 06:00:43;;;;;;;5.82;2.97;;;;;;;-0.80;81.65;99372.88;5072195;28;20167;-71
2021/12/12 06:03:39;;;;;;;5.45;3.15;;;;;;;-0.86;82.01;99360.09;5071870;28;20055;-71
2021/12/12 06:06:29;;;;;;;7.80;2.90;;;;;;;-0.79;81.46;99371.19;5071953;28;20051;-69
2021/12/12 06:09:18;;;;;;;6.30;3.30;;;;;;;-0.98;80.85;99366.25;5070766;28;20123;-69
2021/12/12 06:12:07;;;;;;;8.95;3.17;;;;;;;-1.04;81.23;99348.31;5056575;28;20051;-69
2021/12/12 06:14:53;;;;;;;4.68;2.65;;;;;;;-0.96;80.71;99338.78;5071813;28;20081;-71
2021/12/12 06:17:40;;;;;;;4.75;2.92;;;;;;;-1.11;80.26;99329.53;5071888;28;20060;-71
2021/12/12 06:20:27;;;;;;;7.47;3.38;;;;;;;-1.03;79.89;99356.00;5072003;28;20047;-70
2021/12/12 06:23:15;;;;;;;4.13;2.38;;;;;;;-1.02;80.25;99369.72;5071596;28;20063;-71
2021/12/12 06:26:02;;;;;;;5.40;2.83;;;;;;;-0.97;80.45;99373.09;5084922;28;20051;-72
2021/12/12 06:28:49;;;;;;;5.55;2.78;;;;;;;-1.01;80.31;99384.28;5073309;28;20055;-70
2021/12/12 06:31:38;;;;;;;5.00;2.97;;;;;;;-0.96;78.67;99382.50;5073493;28;20523;-73
2021/12/12 06:34:24;;;;;;;6.00;2.70;;;;;;;-0.98;78.67;99379.13;5073302;28;20055;-72
2021/12/12 06:37:10;;;;;;;5.30;2.75;;;;;;;-0.98;79.17;99392.00;5072843;28;20059;-71
2021/12/12 06:39:56;;;;;;;5.28;2.65;;;;;;;-0.92;78.58;99394.50;5076965;28;20077;-72
2021/12/12 06:42:43;;;;;;;5.82;2.80;;;;;;;-0.96;79.29;99377.38;5073090;28;20094;-67
2021/12/12 06:45:29;;;;;;;6.38;2.45;;;;;;;-0.93;78.34;99400.47;5086061;28;20498;-72
2021/12/12 06:48:16;;;;;;;3.88;2.28;;;;;;;-1.04;78.43;99382.59;5062792;28;20064;-69
2021/12/12 06:51:03;;;;;;;6.68;3.20;;;;;;;-0.92;77.78;99380.75;5052589;28;20044;-69
2021/12/12 06:53:49;;;;;;;4.97;2.65;;;;;;;-0.93;77.35;99392.75;5057670;28;20056;-71
2021/12/12 06:56:36;;;;;;;5.82;2.35;;;;;;;-0.88;77.64;99392.72;5052805;28;20360;-69
2021/12/12 06:59:24;;;;;;;4.05;2.70;;;;;;;-0.59;80.17;99417.28;5052722;28;20056;-69
2021/12/12 07:02:11;;;;;;;5.13;2.45;;;;;;;-0.71;77.11;99413.13;5083615;28;20043;-69
2021/12/12 07:04:57;;;;;;;3.92;2.40;;;;;;;-0.77;76.63;99419.16;5072680;28;20047;-70
2021/12/12 07:07:44;;;;;;;4.38;2.10;;;;;;;-0.63;76.02;99398.44;5072524;28;20092;-71
2021/12/12 07:10:31;;;;;;;3.25;1.80;;;;;;;-0.61;75.75;99424.16;5072588;28;20048;-70
2021/12/12 07:13:18;;;;;;;2.85;2.10;;;;;;;-0.49;76.65;99430.88;5077497;28;20072;-66
2021/12/12 07:16:04;;;;;;;3.03;1.63;;;;;;;-0.45;76.17;99414.53;5098227;28;20063;-69
2021/12/12 07:18:53;;;;;;;5.28;2.38;;;;;;;-0.36;76.23;99429.00;5063220;28;20055;-68
2021/12/12 07:21:42;;;;;;;6.57;2.97;;;;;;;-0.05;75.14;99414.84;5076025;28;20403;-66
2021/12/12 07:24:29;;;;;;;3.85;1.70;;;;;;;-0.46;74.42;99417.97;5056559;28;20044;-70
2021/12/12 07:27:16;;;;;;;6.78;2.90;;;;;;;-0.02;81.06;99415.63;5054683;28;20055;-68
2021/12/12 07:30:04;;;;;;;4.55;1.85;;;;;;;0.47;76.03;99412.34;5053768;28;20082;-70
2021/12/12 07:32:50;;;;;;;9.75;3.85;;;;;;;0.73;84.15;99422.19;5055180;28;20048;-68
2021/12/12 07:35:39;;;;;;;4.05;2.53;;;;;;;0.80;77.01;99411.78;5089718;28;20055;-66
2021/12/12 07:38:28;;;;;;;4.50;2.47;;;;;;;-0.06;73.81;99434.59;5074858;28;20048;-64
2021/12/12 07:41:14;;;;;;;5.50;2.50;;;;;;;0.16;74.99;99431.72;5074422;28;20072;-67
2021/12/12 07:44:01;;;;;;;7.82;4.00;;;;;;;0.58;82.26;99425.03;5071041;28;20064;-62
2021/12/12 07:46:48;;;;;;;4.97;2.28;;;;;;;0.38;73.53;99430.53;5064192;28;20063;-64
2021/12/12 07:49:39;;;;;;;4.93;2.20;;;;;;;-0.07;76.29;99427.75;5058823;28;20047;-57
2021/12/12 07:52:28;;;;;;;5.93;2.28;;;;;;;0.07;74.74;99419.81;5053336;28;20044;-63
2021/12/12 07:55:15;;;;;;;4.93;2.00;;;;;;;0.05;73.44;99415.56;5053986;28;20056;-63
2021/12/12 07:58:08;;;;;;;4.78;1.77;;;;;;;0.29;73.61;99436.69;5063131;28;20059;-63
2021/12/12 08:00:57;;;;;;;5.25;3.10;;;;;;;0.59;77.43;99425.03;5074164;28;20055;-65
2021/12/12 08:03:43;;;;;;;4.40;1.88;;;;;;;0.69;71.16;99425.72;5074447;28;20056;-62
2021/12/12 08:06:31;;;;;;;5.55;2.67;;;;;;;1.26;70.05;99438.44;5080171;28;20051;-64
2021/12/12 08:09:18;;;;;;;4.43;2.03;;;;;;;2.81;63.66;99409.13;5078538;28;20048;-63
2021/12/12 08:12:05;;;;;;;3.53;1.55;;;;;;;3.06;62.56;99424.03;5074312;28;20399;-62
2021/12/12 08:14:52;;;;;;;2.97;1.63;;;;;;;3.33;60.23;99421.56;5074227;28;20067;-62
2021/12/12 08:17:38;;;;;;;3.40;1.85;;;;;;;3.66;61.50;99421.50;5073424;28;20056;-63
2021/12/12 08:20:26;;;;;;;8.00;2.63;;;;;;;5.81;61.63;99422.16;5100155;28;20122;-62
2021/12/12 08:23:14;;;;;;;1.98;1.40;;;;;;;5.19;54.71;99413.13;5087988;28;20118;-62
2021/12/12 08:26:03;;;;;;;4.10;1.48;;;;;;;5.15;59.93;99422.78;5101648;28;20043;-60
2021/12/12 08:28:49;;;;;;;2.58;1.50;;;;;;;4.20;59.29;99402.56;5081970;28;20051;-65
2021/12/12 08:31:36;;;;;;;4.38;1.75;;;;;;;3.56;59.60;99428.69;5055132;28;20059;-63
2021/12/12 08:34:22;;;;;;;4.43;2.10;;;;;;;3.73;67.01;99440.31;5054306;28;20048;-64
2021/12/12 08:37:08;;;;;;;3.17;1.85;;;;;;;2.44;64.01;99434.22;5054577;28;20056;-62
2021/12/12 08:39:55;;;;;;;4.25;1.65;;;;;;;2.56;64.67;99440.81;5054562;28;20507;-61
2021/12/12 08:42:41;;;;;;;5.25;2.10;;;;;;;2.79;65.77;99465.28;5082092;28;20046;-64
2021/12/12 08:45:30;;;;;;;4.10;2.20;;;;;;;2.52;63.27;99460.75;5100116;28;20047;-63
2021/12/12 08:48:18;;;;;;;5.55;1.70;;;;;;;2.55;65.96;99475.31;5094709;28;20067;-63
2021/12/12 08:51:19;;;;;;;4.40;2.20;;;;;;;7.09;64.60;99471.72;5094630;28;20505;-57
2021/12/12 08:54:14;;;;;;;14.98;2.83;;;;;;;7.31;51.96;99476.84;5090532;28;20565;-58
2021/12/12 08:57:30;;;;;;;19.65;3.90;;;;;;;6.44;60.49;99473.50;5065473;28;20055;-61
2021/12/12 09:00:21;;;;;;;21.27;3.65;;;;;;;4.96;57.58;99473.69;5074629;28;20134;-61
2021/12/12 09:03:08;;;;;;;9.20;2.53;;;;;;;5.24;56.26;99478.75;5073071;28;20051;-61
2021/12/12 09:05:55;;;;;;;3.28;1.90;;;;;;;5.57;59.66;99480.19;5074465;28;20430;-61
2021/12/12 09:08:48;;;;;;;5.68;1.90;;;;;;;7.42;49.39;99492.06;5087371;28;20142;-62
2021/12/12 09:12:04;;;;;;;2.60;1.77;;;;;;;6.11;49.51;99492.13;5094531;28;20054;-65
2021/12/12 09:15:23;;;;;;;3.35;1.65;;;;;;;6.01;51.58;99489.00;5099356;28;20051;-66
2021/12/12 09:18:16;;;;;;;2.45;1.58;;;;;;;4.85;52.71;99485.25;5073802;28;20067;-64
2021/12/12 09:21:25;;;;;;;2.97;1.50;;;;;;;5.04;52.93;99475.09;5098873;28;20043;-65
2021/12/12 09:24:21;;;;;;;4.32;1.60;;;;;;;6.03;49.93;99464.63;5081398;28;20067;-62
2021/12/12 09:27:10;;;;;;;4.45;1.83;;;;;;;8.46;50.18;99460.34;5071606;28;20043;-63
2021/12/12 09:30:04;;;;;;;6.00;2.08;;;;;;;7.46;53.82;99462.31;5078811;28;20063;-60
2021/12/12 09:33:00;;;;;;;4.63;1.73;;;;;;;7.84;49.10;99458.88;5063325;28;20051;-63
2021/12/12 09:36:00;;;;;;;4.43;1.70;;;;;;;6.64;56.62;99464.88;5089015;28;20043;-60
2021/12/12 09:39:19;;;;;;;3.50;1.95;;;;;;;6.92;50.89;99464.66;5092806;28;20233;-62
2021/12/12 09:42:24;;;;;;;5.40;2.13;;;;;;;7.35;49.86;99470.63;5090271;28;20403;-59
2021/12/12 09:45:39;;;;;;;4.55;1.95;;;;;;;7.96;50.27;99467.06;5073468;28;20597;-63
2021/12/12 09:52:36;;;;;;;3.42;2.30;;;;;;;5.44;54.18;99477.19;5060566;28;20502;-63
2021/12/12 09:55:35;;;;;;;4.22;2.00;;;;;;;3.58;58.01;99464.91;5098905;28;20044;-63
2021/12/12 09:58:48;;;;;;;3.10;2.10;;;;;;;4.70;59.82;99478.81;5063901;28;20469;-62
2021/12/12 10:01:38;;;;;;;4.25;1.98;;;;;;;5.37;54.33;99478.34;5071991;28;20056;-64
2021/12/12 10:04:31;;;;;;;3.70;2.00;;;;;;;3.71;60.46;99468.00;5056994;28;20138;-64
2021/12/12 10:07:36;;;;;;;4.63;2.33;;;;;;;2.83;64.22;99472.94;5071028;28;20075;-65
2021/12/12 10:10:55;;;;;;;5.32;2.80;;;;;;;3.15;61.82;99464.38;5106104;28;20398;-64
2021/12/12 10:13:56;;;;;;;6.30;2.30;;;;;;;2.92;62.89;99450.28;5061696;28;20051;-63
2021/12/12 10:16:55;;;;;;;6.38;3.13;;;;;;;3.45;63.38;99446.28;5066708;28;20046;-60
2021/12/12 10:19:41;;;;;;;7.82;3.05;;;;;;;3.14;64.02;99427.25;5069537;28;20541;-65
2021/12/12 10:22:42;;;;;;;6.50;3.08;;;;;;;3.05;63.58;99424.94;5071976;28;20046;-64
2021/12/12 10:25:35;;;;;;;6.78;3.00;;;;;;;2.95;64.01;99398.44;5069364;28;20051;-63
2021/12/12 10:28:26;;;;;;;5.80;3.10;;;;;;;3.49;61.54;99421.13;5070351;28;20067;-66
2021/12/12 10:31:27;;;;;;;4.97;2.72;;;;;;;2.92;64.43;99420.06;5072978;28;20158;-65
2021/12/12 10:34:31;;;;;;;6.50;2.97;;;;;;;3.11;66.59;99414.41;5073323;28;20396;-68
2021/12/12 10:37:25;;;;;;;5.07;3.28;;;;;;;2.77;65.40;99426.50;5070996;28;20047;-64
2021/12/12 10:40:15;;;;;;;5.68;3.30;;;;;;;2.89;68.21;99429.66;5072828;28;20118;-62
2021/12/12 10:43:07;;;;;;;6.53;3.65;;;;;;;2.68;67.83;99426.72;5073043;28;20051;-63
2021/12/12 10:46:03;;;;;;;7.28;3.35;;;;;;;2.08;67.70;99422.97;5072960;28;20506;-67
2021/12/12 10:48:58;;;;;;;7.18;3.20;;;;;;;2.42;68.56;99421.31;5059631;28;20048;-63
2021/12/12 10:51:51;;;;;;;7.03;3.55;;;;;;;2.07;67.83;99423.00;5072854;28;20055;-62
2021/12/12 10:54:49;;;;;;;6.75;4.10;;;;;;;2.36;71.24;99433.53;5072048;28;20048;-61
2021/12/12 10:57:37;;;;;;;6.03;2.63;;;;;;;2.82;69.29;99427.22;5064738;28;20048;-63
2021/12/12 11:00:28;;;;;;;6.47;3.00;;;;;;;2.60;68.00;99413.97;5074315;28;20506;-62
2021/12/12 11:03:26;;;;;;;7.20;4.20;;;;;;;2.22;75.35;99435.56;5056710;28;20056;-72
2021/12/12 11:06:22;;;;;;;6.18;3.58;;;;;;;2.07;70.41;99446.28;5056054;28;20044;-75
2021/12/12 11:09:26;;;;;;;6.45;3.75;;;;;;;1.75;69.50;99474.50;5069688;28;20036;-72
2021/12/12 11:12:24;;;;;;;6.63;3.65;;;;;;;2.34;67.92;99478.41;5072645;28;20507;-72
2021/12/12 11:15:26;;;;;;;7.38;3.30;;;;;;;2.51;66.50;99492.69;5069596;28;20408;-73
2021/12/12 11:18:17;;;;;;;;;;;;;;;2.93;68.73;99504.59;5068743;28;20052;-67
2021/12/12 11:21:26;;;;;;;5.00;3.20;;;;;;;3.77;66.40;99498.91;5061017;28;19919;-65
2021/12/12 11:24:22;;;;;;;7.70;3.50;;;;;;;4.83;59.27;99497.44;5090658;28;20051;-65
2021/12/12 11:27:14;;;;;;;7.13;3.47;;;;;;;4.52;63.57;99496.69;5072201;28;20051;-61
2021/12/12 11:30:18;;;;;;;6.07;3.20;;;;;;;4.72;59.73;99494.38;5065830;28;20130;-62
2021/12/12 11:33:11;;;;;;;7.13;3.00;;;;;;;4.44;64.84;99506.47;5079992;28;20372;-64
2021/12/12 11:35:58;;;;;;;7.45;3.47;;;;;;;4.11;62.28;99491.06;5079941;28;20055;-65
2021/12/12 11:39:22;;;;;;;6.43;3.38;;;;;;;4.14;60.75;99491.81;5074853;28;20062;-68
2021/12/12 11:42:26;;;;;;;8.50;3.70;;;;;;;3.57;63.97;99502.91;5072687;28;20064;-69
2021/12/12 11:45:22;;;;;;;8.07;4.13;;;;;;;4.03;62.44;99496.47;5073166;28;20214;-66
2021/12/12 11:48:40;;;;;;;8.45;4.55;;;;;;;4.17;62.85;99491.72;5079304;28;20407;-66
2021/12/12 11:51:41;;;;;;;8.88;4.85;;;;;;;4.58;60.29;99471.44;5073517;28;20095;-68
2021/12/12 11:54:45;;;;;;;8.90;4.55;;;;;;;4.13;63.43;99477.13;5068694;28;20048;-62
2021/12/12 11:57:41;;;;;;;9.00;4.82;;;;;;;4.12;61.85;99478.03;5074057;28;20412;-61
2021/12/12 12:00:34;;;;;;;11.95;4.65;;;;;;;4.56;61.11;99472.34;5074870;28;20060;-60
2021/12/12 12:03:37;;;;;;;;;;;;;;;4.06;62.08;99486.00;5074446;28;20069;-71
2021/12/12 12:06:56;;;;;;;8.70;4.93;;;;;;;3.90;62.39;99483.84;5069637;28;19953;-63
2021/12/12 12:10:13;;;;;;;7.90;3.95;;;;;;;4.90;60.67;99479.91;5073345;28;20043;-61
2021/12/12 12:13:22;;;;;;;8.40;4.30;;;;;;;4.66;61.64;99485.03;5074233;28;20052;-63
2021/12/12 12:16:46;;;;;;;8.93;4.55;;;;;;;4.58;60.52;99490.47;5074418;28;20055;-64
2021/12/12 12:20:10;;;;;;;8.50;4.28;;;;;;;4.80;60.85;99484.56;5073478;28;20110;-64
2021/12/12 12:23:16;;;;;;;8.02;4.68;;;;;;;4.21;63.17;99495.06;5072968;28;20047;-60
2021/12/12 12:29:33;;;;;;;9.90;5.00;;;;;;;4.31;61.52;99485.25;5094231;28;20056;-63
2021/12/12 12:32:49;;;;;;;8.05;4.22;;;;;;;5.01;61.51;99488.19;5071823;28;20502;-63
2021/12/12 12:36:12;;;;;;;8.27;4.70;;;;;;;4.73;59.45;99481.34;5054243;28;20404;-64
2021/12/12 12:39:24;;;;;;;9.75;4.57;;;;;;;5.78;58.98;99488.13;5054766;28;20507;-63
2021/12/12 12:42:37;;;;;;;10.50;4.72;;;;;;;5.21;57.54;99481.47;5035253;28;20475;-63
2021/12/12 12:46:17;;;;;;;9.52;4.68;;;;;;;5.47;57.36;99494.47;5067785;28;20044;-65
2021/12/12 12:49:34;;;;;;;9.82;4.65;;;;;;;4.99;58.86;99492.59;5054707;28;20502;-64
2021/12/12 12:52:56;;;;;;;9.10;5.47;;;;;;;4.37;59.35;99499.78;5067664;28;20426;-63
2021/12/12 12:56:07;;;;;;;10.57;4.85;;;;;;;4.72;62.53;99499.56;5081860;28;20052;-63
2021/12/12 12:59:05;;;;;;;7.85;4.20;;;;;;;4.83;63.00;99501.81;5068970;28;20056;-64
2021/12/12 13:02:20;;;;;;;10.27;4.93;;;;;;;4.48;60.60;99497.69;5065011;28;20055;-63
2021/12/12 13:05:34;;;;;;;8.85;4.35;;;;;;;5.73;67.02;99511.69;5067757;28;20479;-63
2021/12/12 13:08:45;;;;;;;7.78;4.40;;;;;;;5.22;58.96;99509.16;5070694;28;20522;-63
2021/12/12 13:11:50;;;;;;;9.73;4.60;;;;;;;4.13;61.92;99512.63;5073801;28;20051;-63
2021/12/12 13:14:48;;;;;;;7.93;4.60;;;;;;;4.84;63.18;99506.09;5070197;28;20047;-60
2021/12/12 13:17:53;;;;;;;10.07;5.45;;;;;;;6.18;56.14;99510.97;5060698;28;20044;-61
2021/12/12 13:20:58;;;;;;;8.00;3.72;;;;;;;7.75;65.80;99511.50;5069182;28;20052;-60
2021/12/12 13:24:23;;;;;;;8.95;4.90;;;;;;;5.23;57.03;99523.84;5067935;28;20063;-60
2021/12/12 13:27:37;;;;;;;8.30;4.38;;;;;;;5.84;66.77;99515.66;5080002;28;20513;-61
2021/12/12 13:30:30;;;;;;;10.13;4.00;;;;;;;6.21;62.24;99516.03;5067352;28;20040;-61
2021/12/12 13:33:46;;;;;;;9.85;3.65;;;;;;;8.37;53.78;99520.84;5071952;28;20425;-62
2021/12/12 13:37:16;;;;;;;8.48;4.07;;;;;;;7.66;51.88;99523.16;5071663;28;20043;-61
2021/12/12 13:40:24;;;;;;;7.40;3.17;;;;;;;7.25;52.17;99506.66;5050332;28;20056;-60
2021/12/12 13:43:34;;;;;;;9.27;3.97;;;;;;;6.70;57.37;99530.63;5055378;28;20048;-61
2021/12/12 13:46:53;;;;;;;12.55;4.55;;;;;;;6.63;59.87;99527.44;5057485;28;20051;-60
2021/12/12 13:49:56;;;;;;;8.30;4.05;;;;;;;6.37;55.49;99534.50;5028089;28;20051;-61
2021/12/12 13:53:04;;;;;;;8.15;4.18;;;;;;;4.64;65.17;99521.41;5063838;28;20511;-61
2021/12/12 13:56:13;;;;;;;8.13;2.95;;;;;;;4.57;64.94;99538.06;5057031;28;20056;-60
2021/12/12 13:59:19;;;;;;;8.70;4.07;;;;;;;4.04;66.04;99537.06;5068970;28;20061;-61
2021/12/12 14:02:07;;;;;;;8.75;4.80;;;;;;;3.07;65.14;99537.03;5072011;28;20051;-62
2021/12/12 14:05:15;;;;;;;7.55;4.78;;;;;;;3.22;66.45;99532.38;5071854;28;20479;-62